createdAt,value
2023-04-22T00:02:19.434Z,15.90
2023-04-22T00:05:09.976Z,15.90
2023-04-22T00:07:58.448Z,15.50
2023-04-22T00:10:46.886Z,15.50
2023-04-22T00:13:35.368Z,15.60
2023-04-22T00:16:26.270Z,15.40
2023-04-22T00:19:14.811Z,15.40
2023-04-22T00:22:04.759Z,15.60
2023-04-22T00:24:53.202Z,15.50
2023-04-22T00:27:41.756Z,15.60
2023-04-22T00:30:30.161Z,15.90
2023-04-22T00:33:19.999Z,15.80
2023-04-22T00:36:08.792Z,16.80
2023-04-22T00:38:57.546Z,15.60
2023-04-22T00:41:46.306Z,15.50
2023-04-22T00:44:34.976Z,15.50
2023-04-22T00:47:26.961Z,15.70
2023-04-22T00:50:17.172Z,15.60
2023-04-22T00:53:05.981Z,15.60
2023-04-22T00:55:54.487Z,15.60
2023-04-22T00:58:43.192Z,15.60
2023-04-22T01:01:32.191Z,15.60
2023-04-22T01:04:22.399Z,15.20
2023-04-22T01:07:12.339Z,15.40
2023-04-22T01:10:00.874Z,15.70
2023-04-22T01:12:49.280Z,15.70
2023-04-22T01:15:38.440Z,15.90
2023-04-22T01:18:28.056Z,16.00
2023-04-22T01:21:17.185Z,16.10
2023-04-22T01:24:08.115Z,16.10
2023-04-22T01:26:56.700Z,16.10
2023-04-22T01:29:45.403Z,16.00
2023-04-22T01:32:34.629Z,16.00
2023-04-22T01:35:23.121Z,15.80
2023-04-22T01:38:13.161Z,15.80
2023-04-22T01:41:03.554Z,15.30
2023-04-22T01:43:53.440Z,15.30
2023-04-22T01:46:41.902Z,15.60
2023-04-22T01:49:30.370Z,15.80
2023-04-22T01:52:18.859Z,15.80
2023-04-22T01:55:08.867Z,15.80
2023-04-22T01:57:58.645Z,15.70
2023-04-22T02:03:36.298Z,14.90
2023-04-22T02:06:24.981Z,14.60
2023-04-22T02:09:13.563Z,14.40
2023-04-22T02:12:02.428Z,14.20
2023-04-22T02:14:52.255Z,14.10
2023-04-22T02:17:44.429Z,14.30
2023-04-22T02:20:32.861Z,14.70
2023-04-22T02:23:21.696Z,15.10
2023-04-22T02:26:10.184Z,15.30
2023-04-22T02:28:58.610Z,15.50
2023-04-22T02:31:48.437Z,15.60
2023-04-22T02:34:37.374Z,15.50
2023-04-22T02:37:26.291Z,15.40
2023-04-22T02:40:14.657Z,15.60
2023-04-22T02:43:03.648Z,15.70
2023-04-22T02:45:52.069Z,15.60
2023-04-22T02:48:41.892Z,15.50
2023-04-22T02:54:45.018Z,15.70
2023-04-22T02:57:33.463Z,15.80
2023-04-22T03:00:22.124Z,15.90
2023-04-22T03:03:10.823Z,15.90
2023-04-22T03:06:00.676Z,15.60
2023-04-22T03:08:49.237Z,15.40
2023-04-22T03:11:37.690Z,15.60
2023-04-22T03:14:26.158Z,15.70
2023-04-22T03:17:14.637Z,15.70
2023-04-22T03:20:03.120Z,15.80
2023-04-22T03:22:52.945Z,15.80
2023-04-22T03:25:41.566Z,15.60
2023-04-22T03:28:29.979Z,15.50
2023-04-22T03:31:18.362Z,15.50
2023-04-22T03:34:06.889Z,15.50
2023-04-22T03:36:55.314Z,15.30
2023-04-22T03:39:45.137Z,15.20
2023-04-22T03:42:33.560Z,14.80
2023-04-22T03:45:21.996Z,15.00
2023-04-22T03:48:10.426Z,15.20
2023-04-22T03:50:59.153Z,15.40
2023-04-22T03:53:47.644Z,15.40
2023-04-22T03:56:37.593Z,15.30
2023-04-22T03:59:26.098Z,15.30
2023-04-22T04:02:14.649Z,15.40
2023-04-22T04:05:03.546Z,15.40
2023-04-22T04:07:52.160Z,15.50
2023-04-22T04:10:41.263Z,15.50
2023-04-22T04:13:32.552Z,15.50
2023-04-22T04:16:21.149Z,15.60
2023-04-22T04:19:10.140Z,15.50
2023-04-22T04:21:58.585Z,15.50
2023-04-22T04:24:47.376Z,15.60
2023-04-22T04:27:36.055Z,15.70
2023-04-22T04:30:26.106Z,15.70
2023-04-22T04:33:16.794Z,15.70
2023-04-22T04:36:05.737Z,15.70
2023-04-22T04:38:55.723Z,15.70
2023-04-22T04:41:45.138Z,15.60
2023-04-22T04:44:33.876Z,15.10
2023-04-22T04:47:23.666Z,15.00
2023-04-22T04:50:12.554Z,14.90
2023-04-22T04:53:01.661Z,15.00
2023-04-22T04:55:50.275Z,15.20
2023-04-22T04:58:38.900Z,15.30
2023-04-22T05:01:27.339Z,15.50
2023-04-22T05:04:17.301Z,15.50
2023-04-22T05:07:05.963Z,15.40
2023-04-22T05:09:54.713Z,15.40
2023-04-22T05:12:44.206Z,15.50
2023-04-22T05:15:32.758Z,15.50
2023-04-22T05:18:21.444Z,15.60
2023-04-22T05:21:11.351Z,15.60
2023-04-22T05:23:59.769Z,15.60
2023-04-22T05:26:48.195Z,15.40
2023-04-22T05:29:36.778Z,15.30
2023-04-22T05:32:25.479Z,15.30
2023-04-22T05:35:14.163Z,15.10
2023-04-22T05:38:04.110Z,15.40
2023-04-22T05:40:52.573Z,15.60
2023-04-22T05:43:41.022Z,15.60
2023-04-22T05:46:29.509Z,15.80
2023-04-22T05:49:18.107Z,15.80
2023-04-22T05:52:06.669Z,15.90
2023-04-22T05:54:56.509Z,15.70
2023-04-22T05:57:44.929Z,15.50
2023-04-22T06:00:33.433Z,15.60
2023-04-22T06:03:22.047Z,15.80
2023-04-22T06:06:10.609Z,16.00
2023-04-22T06:08:59.114Z,16.00
2023-04-22T06:11:49.186Z,16.00
2023-04-22T06:14:37.706Z,16.00
2023-04-22T06:17:26.246Z,16.10
2023-04-22T06:20:15.185Z,16.20
2023-04-22T06:23:05.285Z,15.90
2023-04-22T06:25:53.792Z,15.60
2023-04-22T06:28:43.736Z,15.60
2023-04-22T06:31:32.521Z,15.80
2023-04-22T06:34:21.287Z,16.00
2023-04-22T06:37:10.032Z,16.20
2023-04-22T06:39:58.519Z,16.20
2023-04-22T06:42:46.976Z,16.30
2023-04-22T06:45:36.859Z,16.50
2023-04-22T06:48:27.360Z,16.60
2023-04-22T06:51:15.836Z,16.80
2023-04-22T06:54:04.354Z,17.00
2023-04-22T06:56:52.888Z,17.20
2023-04-22T06:59:42.622Z,17.20
2023-04-22T07:02:33.680Z,17.40
2023-04-22T07:05:22.365Z,17.60
2023-04-22T07:08:11.817Z,17.70
2023-04-22T07:11:00.309Z,17.60
2023-04-22T07:13:48.788Z,17.80
2023-04-22T07:16:38.907Z,17.90
2023-04-22T07:19:30.095Z,18.00
2023-04-22T07:22:18.480Z,18.20
2023-04-22T07:25:08.286Z,18.00
2023-04-22T07:27:56.736Z,18.10
2023-04-22T07:30:46.094Z,18.30
2023-04-22T07:33:34.568Z,18.50
2023-04-22T07:36:24.388Z,18.60
2023-04-22T07:42:02.231Z,18.70
2023-04-22T07:44:50.711Z,18.60
2023-04-22T07:47:39.209Z,18.60
2023-04-22T07:50:27.659Z,18.70
2023-04-22T07:53:17.789Z,18.80
2023-04-22T07:58:55.473Z,18.80
2023-04-22T08:01:46.086Z,18.90
2023-04-22T08:04:34.644Z,19.00
2023-04-22T08:10:15.818Z,19.20
2023-04-22T08:13:04.289Z,19.10
2023-04-22T08:15:52.769Z,18.80
2023-04-22T08:18:41.281Z,18.60
2023-04-22T08:21:29.758Z,18.60
2023-04-22T08:24:18.195Z,18.80
2023-04-22T08:27:08.512Z,19.00
2023-04-22T08:29:56.942Z,18.90
2023-04-22T08:32:45.921Z,19.10
2023-04-22T08:35:36.600Z,19.10
2023-04-22T08:38:25.130Z,19.10
2023-04-22T08:41:14.142Z,18.90
2023-04-22T08:44:04.301Z,18.90
2023-04-22T08:46:53.014Z,18.80
2023-04-22T08:49:41.819Z,18.90
2023-04-22T08:52:31.556Z,19.20
2023-04-22T08:55:20.690Z,19.40
2023-04-22T08:58:09.288Z,19.50
2023-04-22T09:00:59.380Z,19.60
2023-04-22T09:03:50.174Z,19.80
2023-04-22T09:06:39.910Z,19.90
2023-04-22T09:09:29.641Z,20.00
2023-04-22T09:12:19.264Z,20.20
2023-04-22T09:15:09.800Z,20.20
2023-04-22T09:18:00.162Z,20.20
2023-04-22T09:20:49.598Z,20.20
2023-04-22T09:23:49.479Z,20.20
2023-04-22T09:26:41.906Z,20.30
2023-04-22T09:29:31.914Z,20.50
2023-04-22T09:32:20.781Z,20.60
2023-04-22T09:35:10.922Z,20.60
2023-04-22T09:38:00.901Z,20.70
2023-04-22T09:40:49.432Z,20.60
2023-04-22T09:43:39.522Z,20.50
2023-04-22T09:46:29.818Z,20.50
2023-04-22T09:49:18.589Z,20.60
2023-04-22T09:52:08.486Z,20.70
2023-04-22T09:54:56.914Z,20.80
2023-04-22T09:57:45.965Z,21.00
2023-04-22T10:00:34.537Z,21.10
2023-04-22T10:03:23.163Z,21.10
2023-04-22T10:06:12.238Z,21.10
2023-04-22T10:09:02.994Z,21.10
2023-04-22T10:11:54.044Z,21.10
2023-04-22T10:14:42.525Z,21.10
2023-04-22T10:17:32.915Z,21.10
2023-04-22T10:20:22.793Z,21.10
2023-04-22T10:23:15.634Z,21.10
2023-04-22T10:26:06.724Z,21.20
2023-04-22T10:28:55.292Z,21.30
2023-04-22T10:31:44.357Z,21.50
2023-04-22T10:34:33.548Z,21.60
2023-04-22T10:37:22.402Z,21.80
2023-04-22T10:40:13.973Z,21.80
2023-04-22T10:45:52.678Z,22.00
2023-04-22T10:48:51.447Z,22.00
2023-04-22T10:51:40.893Z,22.00
2023-04-22T10:54:57.852Z,23.80
2023-04-22T10:57:47.916Z,22.00
2023-04-22T11:00:53.128Z,22.20
2023-04-22T11:03:42.872Z,22.30
2023-04-22T11:06:31.549Z,22.30
2023-04-22T11:09:21.467Z,22.20
2023-04-22T11:12:43.202Z,22.40
2023-04-22T11:15:32.402Z,22.70
2023-04-22T11:18:23.532Z,22.80
2023-04-22T11:21:15.324Z,23.10
2023-04-22T11:24:06.292Z,23.30
2023-04-22T11:30:01.461Z,23.70
2023-04-22T11:32:51.271Z,23.90
2023-04-22T11:35:42.678Z,24.10
2023-04-22T11:38:31.444Z,24.20
2023-04-22T11:41:23.156Z,24.10
2023-04-22T11:44:14.861Z,24.10
2023-04-22T11:47:03.332Z,23.80
2023-04-22T11:49:59.254Z,24.00
2023-04-22T11:55:41.199Z,24.50
2023-04-22T11:58:29.721Z,24.60
2023-04-22T12:01:19.443Z,24.70
2023-04-22T12:04:12.174Z,24.80
2023-04-22T12:07:00.845Z,25.00
2023-04-22T12:09:55.076Z,25.20
2023-04-22T12:12:43.646Z,25.20
2023-04-22T12:15:43.031Z,25.00
2023-04-22T12:18:31.991Z,25.00
2023-04-22T12:21:24.997Z,25.20
2023-04-22T12:24:15.108Z,25.50
2023-04-22T12:27:04.990Z,25.80
2023-04-22T12:29:55.481Z,25.90
2023-04-22T12:35:32.900Z,26.30
2023-04-22T12:38:21.520Z,26.30
2023-04-22T12:41:10.648Z,26.20
2023-04-22T12:44:00.640Z,26.20
2023-04-22T12:46:49.209Z,26.30
2023-04-22T12:49:39.600Z,26.30
2023-04-22T12:52:28.452Z,26.30
2023-04-22T12:55:17.971Z,26.00
2023-04-22T12:58:06.623Z,25.50
2023-04-22T13:00:56.562Z,25.00
2023-04-22T13:03:45.112Z,24.50
2023-04-22T13:06:33.782Z,24.10
2023-04-22T13:09:22.320Z,23.80
2023-04-22T13:12:10.831Z,23.60
2023-04-22T13:17:51.460Z,23.50
2023-04-22T13:20:41.791Z,23.50
2023-04-22T13:23:30.895Z,23.60
2023-04-22T13:26:19.350Z,23.70
2023-04-22T13:29:14.082Z,24.10
2023-04-22T13:32:03.738Z,24.60
2023-04-22T13:34:53.692Z,25.00
2023-04-22T13:37:42.128Z,25.20
2023-04-22T13:40:30.634Z,25.40
2023-04-22T13:43:19.170Z,25.60
2023-04-22T13:46:07.727Z,25.60
2023-04-22T13:48:56.872Z,25.60
2023-04-22T13:51:46.697Z,25.50
2023-04-22T13:54:35.186Z,25.60
2023-04-22T13:57:23.909Z,25.50
2023-04-22T14:00:13.470Z,25.40
2023-04-22T14:03:02.359Z,25.60
2023-04-22T14:05:51.007Z,25.70
2023-04-22T14:08:40.963Z,25.70
2023-04-22T14:11:29.498Z,25.70
2023-04-22T14:14:17.914Z,25.30
2023-04-22T14:17:07.034Z,25.10
2023-04-22T14:19:55.628Z,25.00
2023-04-22T14:22:44.078Z,25.00
2023-04-22T14:25:33.984Z,24.90
2023-04-22T14:28:22.498Z,24.90
2023-04-22T14:31:11.740Z,25.00
2023-04-22T14:34:00.389Z,25.00
2023-04-22T14:36:48.862Z,25.20
2023-04-22T14:39:37.391Z,25.20
2023-04-22T14:42:27.389Z,25.10
2023-04-22T14:45:16.003Z,25.10
2023-04-22T14:48:04.653Z,25.20
2023-04-22T14:50:53.200Z,25.20
2023-04-22T14:53:41.722Z,25.30
2023-04-22T14:56:30.464Z,25.10
2023-04-22T14:59:20.534Z,24.80
2023-04-22T15:02:16.003Z,24.50
2023-04-22T15:05:04.875Z,24.30
2023-04-22T15:07:53.370Z,24.20
2023-04-22T15:10:41.875Z,24.00
2023-04-22T15:13:30.356Z,24.10
2023-04-22T15:16:20.632Z,24.10
2023-04-22T15:21:57.855Z,24.00
2023-04-22T15:24:46.309Z,24.10
2023-04-22T15:27:34.819Z,24.20
2023-04-22T15:30:23.985Z,24.10
2023-04-22T15:33:14.027Z,24.20
2023-04-22T15:36:04.128Z,24.20
2023-04-22T15:38:56.001Z,24.20
2023-04-22T15:41:44.502Z,24.10
2023-04-22T15:44:32.919Z,24.10
2023-04-22T15:47:21.441Z,24.00
2023-04-22T15:50:12.263Z,23.80
2023-04-22T15:53:00.772Z,23.70
2023-04-22T15:58:37.925Z,23.40
2023-04-22T16:01:26.477Z,23.30
2023-04-22T16:04:15.103Z,23.20
2023-04-22T16:07:06.051Z,23.10
2023-04-22T16:09:54.621Z,23.00
2023-04-22T16:12:43.408Z,23.00
2023-04-22T16:15:31.942Z,22.90
2023-04-22T16:18:20.406Z,22.90
2023-04-22T16:21:10.374Z,22.90
2023-04-22T16:24:00.917Z,22.80
2023-04-22T16:26:49.347Z,22.80
2023-04-22T16:29:37.930Z,22.80
2023-04-22T16:32:26.882Z,22.80
2023-04-22T16:35:15.324Z,22.80
2023-04-22T16:38:03.939Z,22.70
2023-04-22T16:40:54.372Z,22.70
2023-04-22T16:43:43.121Z,22.60
2023-04-22T16:46:31.767Z,22.60
2023-04-22T16:49:21.065Z,22.50
2023-04-22T16:52:09.733Z,22.50
2023-04-22T16:54:58.542Z,22.40
2023-04-22T16:57:50.698Z,22.40
2023-04-22T17:00:39.668Z,22.30
2023-04-22T17:03:28.373Z,22.30
2023-04-22T17:06:16.907Z,22.20
2023-04-22T17:09:06.452Z,22.20
2023-04-22T17:11:54.918Z,22.10
2023-04-22T17:14:44.827Z,22.10
2023-04-22T17:17:33.344Z,22.10
2023-04-22T17:20:21.824Z,22.10
2023-04-22T17:23:10.297Z,22.00
2023-04-22T17:25:59.439Z,22.20
2023-04-22T17:28:47.923Z,22.00
2023-04-22T17:31:37.855Z,22.00
2023-04-22T17:34:26.515Z,21.90
2023-04-22T17:37:15.057Z,21.90
2023-04-22T17:40:04.830Z,21.90
2023-04-22T17:42:53.319Z,21.90
2023-04-22T17:45:41.781Z,21.90
2023-04-22T17:48:31.601Z,21.80
2023-04-22T17:51:20.168Z,21.80
2023-04-22T17:54:08.948Z,21.70
2023-04-22T17:56:57.399Z,21.70
2023-04-22T17:59:45.811Z,21.70
2023-04-22T18:02:34.502Z,21.70
2023-04-22T18:05:24.612Z,21.60
2023-04-22T18:08:13.209Z,21.60
2023-04-22T18:11:03.101Z,21.60
2023-04-22T18:13:51.560Z,21.60
2023-04-22T18:16:40.040Z,21.60
2023-04-22T18:19:28.484Z,21.50
2023-04-22T18:22:19.487Z,21.60
2023-04-22T18:25:08.338Z,21.50
2023-04-22T18:27:56.753Z,21.60
2023-04-22T18:33:34.027Z,21.40
2023-04-22T18:36:22.455Z,21.40
2023-04-22T18:39:12.374Z,21.40
2023-04-22T18:42:02.058Z,21.30
2023-04-22T18:44:50.632Z,21.30
2023-04-22T18:47:39.105Z,21.30
2023-04-22T18:50:36.014Z,21.20
2023-04-22T19:01:52.523Z,21.20
2023-04-22T19:04:41.359Z,21.10
2023-04-22T19:07:30.105Z,21.00
2023-04-22T19:10:18.676Z,21.00
2023-04-22T19:13:15.776Z,21.00
2023-04-22T19:16:11.449Z,21.00
2023-04-22T19:18:59.945Z,21.00
2023-04-22T19:21:48.404Z,21.00
2023-04-22T19:24:36.852Z,21.00
2023-04-22T19:27:25.532Z,21.00
2023-04-22T19:30:16.370Z,21.00
2023-04-22T19:33:05.103Z,21.00
2023-04-22T19:35:53.561Z,21.00
2023-04-22T19:38:43.263Z,20.90
2023-04-22T19:41:33.444Z,20.90
2023-04-22T19:44:22.170Z,20.90
2023-04-22T19:47:12.479Z,20.90
2023-04-22T19:50:01.404Z,20.90
2023-04-22T19:52:51.805Z,20.80
2023-04-22T19:55:40.502Z,20.80
2023-04-22T19:58:29.226Z,20.80
2023-04-22T20:01:18.031Z,20.80
2023-04-22T20:04:08.880Z,20.70
2023-04-22T20:07:00.787Z,20.70
2023-04-22T20:09:53.168Z,20.60
2023-04-22T20:18:19.874Z,21.80
2023-04-22T20:21:10.514Z,20.40
2023-04-22T20:24:00.387Z,20.50
2023-04-22T20:26:49.858Z,20.40
2023-04-22T20:29:39.121Z,20.40
2023-04-22T20:32:28.565Z,20.40
2023-04-22T20:35:17.479Z,20.40
2023-04-22T20:38:08.926Z,20.40
2023-04-22T20:40:57.689Z,20.40
2023-04-22T20:43:46.575Z,20.30
2023-04-22T20:46:35.151Z,20.30
2023-04-22T20:49:23.595Z,20.20
2023-04-22T20:52:12.523Z,20.20
2023-04-22T20:55:03.494Z,20.10
2023-04-22T20:57:52.006Z,20.10
2023-04-22T21:00:40.542Z,20.10
2023-04-22T21:03:29.386Z,20.10
2023-04-22T21:06:19.285Z,20.00
2023-04-22T21:09:09.126Z,20.00
2023-04-22T21:11:59.597Z,20.00
2023-04-22T21:14:48.815Z,20.00
2023-04-22T21:17:41.853Z,19.90
2023-04-22T21:20:32.311Z,19.90
2023-04-22T21:23:21.182Z,19.80
2023-04-22T21:26:10.968Z,19.60
2023-04-22T21:29:01.403Z,19.60
2023-04-22T21:32:04.921Z,19.50
2023-04-22T21:34:57.776Z,19.50
2023-04-22T21:37:46.275Z,19.40
2023-04-22T21:40:34.719Z,19.40
2023-04-22T21:43:23.161Z,19.40
2023-04-22T21:46:12.932Z,19.20
2023-04-22T21:49:01.354Z,18.90
2023-04-22T21:51:49.882Z,18.70
2023-04-22T21:54:38.431Z,18.40
2023-04-22T21:57:27.341Z,17.90
2023-04-22T22:00:18.506Z,17.90
2023-04-22T22:03:08.552Z,18.10
2023-04-22T22:05:57.640Z,18.20
2023-04-22T22:08:46.867Z,18.10
2023-04-22T22:11:36.061Z,18.10
2023-04-22T22:17:13.299Z,17.80
2023-04-22T22:20:06.259Z,17.50
2023-04-22T22:22:54.654Z,17.30
2023-04-22T22:25:43.118Z,17.40
2023-04-22T22:28:31.511Z,17.70
2023-04-22T22:31:20.021Z,17.70
2023-04-22T22:34:08.563Z,17.90
2023-04-22T22:39:47.198Z,18.00
2023-04-22T22:42:36.152Z,17.90
2023-04-22T22:45:24.664Z,17.70
2023-04-22T22:48:13.340Z,17.60
2023-04-22T22:51:01.920Z,17.40
2023-04-22T22:53:51.813Z,17.30
2023-04-22T22:56:40.237Z,17.40
2023-04-22T22:59:28.658Z,17.70
2023-04-22T23:02:17.460Z,17.50
2023-04-22T23:05:07.598Z,17.50
2023-04-22T23:07:57.471Z,17.70
2023-04-22T23:10:47.321Z,17.90
2023-04-22T23:13:35.819Z,18.10
2023-04-22T23:16:24.671Z,18.10
2023-04-22T23:19:14.379Z,17.80
2023-04-22T23:22:05.005Z,17.30
2023-04-22T23:24:54.207Z,16.60
2023-04-22T23:27:44.944Z,16.50
2023-04-22T23:30:34.059Z,16.70
2023-04-22T23:33:25.827Z,17.00
2023-04-22T23:36:16.239Z,17.10
2023-04-22T23:39:07.666Z,17.20
2023-04-22T23:41:56.099Z,17.40
2023-04-22T23:44:46.358Z,17.30
2023-04-22T23:47:35.001Z,17.30
2023-04-22T23:50:23.744Z,17.30
2023-04-22T23:53:12.202Z,17.40
2023-04-22T23:56:01.247Z,17.30
2023-04-22T23:58:51.044Z,17.20
